Time;durP1;ratioP1;P1;durP2;ratioP2;P2;SDS_P1;SDS_P2;PMS_P1;PMS_P2;Temp;Humidity;BMP_temperature;BMP_pressure;BME280_temperature;BME280_humidity;BME280_pressure;Samples;Min_cycle;Max_cycle;Signal;HPM_P1;HPM_P2
2024/02/06 00:01:48;;;;;;;12.20;6.20;;;9.60;99.90;;;;;;5123534;27;20211;-65
2024/02/06 00:04:14;;;;;;;12.43;4.80;;;9.60;99.90;;;;;;5119860;27;20427;-65
2024/02/06 00:06:40;;;;;;;5.80;4.47;;;9.60;99.90;;;;;;5123509;27;20438;-66
2024/02/06 00:09:05;;;;;;;7.53;4.17;;;9.60;99.90;;;;;;5120462;27;20831;-64
2024/02/06 00:11:31;;;;;;;16.00;5.27;;;9.60;99.90;;;;;;5118325;28;20188;-66
2024/02/06 00:13:57;;;;;;;6.03;3.60;;;9.60;99.90;;;;;;5112920;27;20208;-65
2024/02/06 00:16:22;;;;;;;5.87;4.70;;;9.60;99.90;;;;;;5104608;28;20334;-65
2024/02/06 00:18:48;;;;;;;5.77;3.80;;;9.60;99.90;;;;;;5109633;28;20272;-65
2024/02/06 00:21:14;;;;;;;4.50;4.10;;;9.60;99.90;;;;;;5105741;28;20596;-64
2024/02/06 00:23:40;;;;;;;4.57;4.17;;;9.50;99.90;;;;;;5110245;28;20267;-65
2024/02/06 00:26:05;;;;;;;5.60;4.30;;;9.50;99.90;;;;;;5107474;28;20549;-66
2024/02/06 00:28:31;;;;;;;8.60;3.47;;;9.50;99.90;;;;;;5111134;28;20429;-65
2024/02/06 00:30:57;;;;;;;5.00;3.80;;;9.50;99.90;;;;;;5098741;28;20182;-63
2024/02/06 00:33:22;;;;;;;4.27;3.70;;;9.50;99.90;;;;;;5092003;28;20181;-66
2024/02/06 00:35:48;;;;;;;7.67;4.40;;;9.50;99.90;;;;;;5104151;28;20522;-65
2024/02/06 00:38:14;;;;;;;9.60;4.80;;;9.50;99.90;;;;;;5110589;28;20238;-63
2024/02/06 00:40:39;;;;;;;9.10;4.40;;;9.50;99.90;;;;;;5102565;28;20609;-66
2024/02/06 00:43:05;;;;;;;6.30;3.43;;;9.50;99.90;;;;;;5108765;28;20204;-66
2024/02/06 00:45:31;;;;;;;6.07;4.90;;;9.50;99.90;;;;;;5105256;28;20227;-66
2024/02/06 00:47:56;;;;;;;5.50;4.47;;;9.50;99.90;;;;;;5108661;28;20957;-66
2024/02/06 00:50:22;;;;;;;8.33;4.20;;;9.50;99.90;;;;;;5099047;28;20554;-64
2024/02/06 00:52:48;;;;;;;6.93;4.30;;;9.50;99.90;;;;;;5108312;28;20177;-65
2024/02/06 00:55:14;;;;;;;6.10;4.00;;;9.50;99.90;;;;;;5109980;28;20215;-66
2024/02/06 00:57:39;;;;;;;4.40;3.30;;;9.50;99.90;;;;;;5102103;27;20251;-65
2024/02/06 01:00:09;;;;;;;9.80;4.63;;;9.50;99.90;;;;;;5108322;28;20422;-66
2024/02/06 01:02:36;;;;;;;5.93;3.60;;;9.50;99.90;;;;;;5103985;28;20253;-65
2024/02/06 01:05:02;;;;;;;5.50;3.80;;;9.50;99.90;;;;;;5106851;28;20429;-65
2024/02/06 01:07:28;;;;;;;6.67;4.13;;;9.50;99.90;;;;;;5098372;28;20447;-65
2024/02/06 01:09:54;;;;;;;4.50;3.57;;;9.50;99.90;;;;;;5107969;28;20793;-65
2024/02/06 01:12:20;;;;;;;5.90;4.00;;;9.60;99.90;;;;;;5100772;28;20517;-65
2024/02/06 01:14:45;;;;;;;3.83;2.80;;;9.60;99.90;;;;;;5089279;28;20798;-66
2024/02/06 01:17:11;;;;;;;7.03;3.30;;;9.60;99.90;;;;;;5108442;28;20289;-65
2024/02/06 01:19:36;;;;;;;3.43;3.00;;;9.60;99.90;;;;;;5103525;28;20181;-66
2024/02/06 01:22:02;;;;;;;4.40;3.40;;;9.60;99.90;;;;;;5107816;28;20235;-66
2024/02/06 01:24:28;;;;;;;3.10;2.60;;;9.50;99.90;;;;;;5105734;28;20563;-65
2024/02/06 01:26:53;;;;;;;5.97;2.80;;;9.60;99.90;;;;;;5107268;28;20228;-65
2024/02/06 01:29:19;;;;;;;3.73;3.43;;;9.50;99.90;;;;;;5109017;28;20648;-61
2024/02/06 01:31:46;;;;;;;7.17;3.00;;;9.60;99.90;;;;;;5100516;28;20189;-63
2024/02/06 01:34:12;;;;;;;4.43;3.03;;;9.50;99.90;;;;;;5094835;28;20542;-65
2024/02/06 01:36:38;;;;;;;3.80;3.20;;;9.50;99.90;;;;;;5111191;28;20446;-65
2024/02/06 01:39:04;;;;;;;9.00;2.97;;;9.60;99.90;;;;;;5103374;28;20909;-65
2024/02/06 01:41:30;;;;;;;4.40;2.90;;;9.50;99.90;;;;;;5103781;28;20208;-65
2024/02/06 01:43:55;;;;;;;3.70;3.30;;;9.50;99.90;;;;;;5105185;28;20423;-65
2024/02/06 01:46:22;;;;;;;4.40;3.03;;;9.40;99.90;;;;;;5103588;28;20273;-64
2024/02/06 01:48:48;;;;;;;3.77;3.40;;;9.40;99.90;;;;;;5108053;28;20271;-64
2024/02/06 01:51:16;;;;;;;2.53;2.33;;;9.40;99.90;;;;;;5103628;28;20510;-64
2024/02/06 01:53:42;;;;;;;6.73;3.30;;;9.40;99.90;;;;;;5110380;28;20418;-64
2024/02/06 01:56:08;;;;;;;5.80;3.13;;;9.40;99.90;;;;;;5103569;28;20817;-63
2024/02/06 01:58:34;;;;;;;3.57;2.47;;;9.40;99.90;;;;;;5112299;28;20642;-64
2024/02/06 02:01:03;;;;;;;3.43;2.73;;;9.40;99.90;;;;;;5103896;28;20426;-65
2024/02/06 02:03:31;;;;;;;4.30;3.30;;;9.30;99.90;;;;;;5080526;28;20914;-65
2024/02/06 02:05:59;;;;;;;3.83;2.73;;;9.30;99.90;;;;;;5106393;28;20444;-65
2024/02/06 02:08:30;;;;;;;4.30;3.20;;;9.30;99.90;;;;;;5104493;28;20536;-65
2024/02/06 02:10:55;;;;;;;3.40;2.90;;;9.30;99.90;;;;;;5108179;28;20447;-65
2024/02/06 02:13:21;;;;;;;4.53;3.70;;;9.30;99.90;;;;;;5104383;28;20512;-65
2024/02/06 02:15:46;;;;;;;5.27;3.07;;;9.30;99.90;;;;;;5111091;28;20628;-65
2024/02/06 02:18:12;;;;;;;4.63;2.90;;;9.30;99.90;;;;;;5104131;28;20284;-65
2024/02/06 02:20:38;;;;;;;5.40;4.87;;;9.20;99.90;;;;;;5096211;28;20188;-64
2024/02/06 02:23:03;;;;;;;4.80;4.20;;;9.20;99.90;;;;;;5104573;28;20609;-65
2024/02/06 02:25:29;;;;;;;4.30;3.43;;;9.10;99.90;;;;;;5104432;28;20220;-65
2024/02/06 02:27:55;;;;;;;4.40;3.13;;;9.10;99.90;;;;;;5107754;28;20181;-65
2024/02/06 02:30:21;;;;;;;3.50;2.83;;;9.10;99.90;;;;;;5104179;28;20187;-65
2024/02/06 02:32:47;;;;;;;4.80;3.30;;;9.00;99.90;;;;;;5110553;28;20176;-65
2024/02/06 02:35:14;;;;;;;6.83;4.00;;;9.00;99.90;;;;;;5093316;28;20453;-65
2024/02/06 02:37:40;;;;;;;4.00;3.40;;;9.00;99.90;;;;;;5107400;28;20185;-63
2024/02/06 02:40:09;;;;;;;5.30;3.00;;;9.00;99.90;;;;;;5104203;28;20482;-65
2024/02/06 02:42:35;;;;;;;4.10;3.80;;;8.90;99.90;;;;;;5108205;28;20575;-65
2024/02/06 02:45:01;;;;;;;6.60;3.37;;;8.90;99.90;;;;;;5105669;28;20513;-65
2024/02/06 02:47:26;;;;;;;5.20;4.23;;;8.90;99.90;;;;;;5100791;28;20447;-61
2024/02/06 02:49:52;;;;;;;6.70;3.97;;;8.90;99.90;;;;;;5097944;28;20679;-65
2024/02/06 02:52:17;;;;;;;6.17;3.57;;;8.90;99.90;;;;;;5090310;28;20186;-65
2024/02/06 02:54:43;;;;;;;7.43;4.20;;;8.90;99.90;;;;;;5090775;28;20216;-65
2024/02/06 02:57:09;;;;;;;4.60;3.50;;;8.90;99.90;;;;;;5090531;28;20215;-62
2024/02/06 02:59:34;;;;;;;6.70;4.50;;;8.90;99.90;;;;;;5090933;28;20227;-62
2024/02/06 03:02:00;;;;;;;5.47;3.70;;;8.90;99.90;;;;;;5090590;28;20459;-65
2024/02/06 03:04:25;;;;;;;7.17;4.23;;;8.90;99.90;;;;;;5090301;28;20213;-65
2024/02/06 03:06:54;;;;;;;8.80;4.20;;;8.90;99.90;;;;;;5090767;28;20600;-64
2024/02/06 03:09:20;;;;;;;5.00;3.80;;;8.90;99.90;;;;;;5090290;28;20648;-65
2024/02/06 03:11:45;;;;;;;6.03;3.83;;;8.90;99.90;;;;;;5090564;28;20477;-65
2024/02/06 03:14:12;;;;;;;6.07;4.00;;;8.90;99.90;;;;;;5090173;28;20196;-64
2024/02/06 03:16:38;;;;;;;7.80;3.47;;;8.90;99.90;;;;;;5078735;28;20211;-66
2024/02/06 03:19:04;;;;;;;9.87;4.93;;;8.80;99.90;;;;;;5081932;28;20515;-64
2024/02/06 03:21:29;;;;;;;5.90;4.00;;;8.80;99.90;;;;;;5086173;28;20205;-65
2024/02/06 03:23:55;;;;;;;6.13;4.50;;;8.90;99.90;;;;;;5090481;28;20181;-63
2024/02/06 03:26:21;;;;;;;5.20;3.90;;;8.80;99.90;;;;;;5102378;22;20189;-62
2024/02/06 03:28:46;;;;;;;6.23;4.60;;;8.80;99.90;;;;;;5089337;28;20193;-61
2024/02/06 03:31:12;;;;;;;9.27;4.67;;;8.80;99.90;;;;;;5089285;28;20181;-60
2024/02/06 03:33:37;;;;;;;6.23;4.00;;;8.80;99.90;;;;;;5089407;28;20185;-62
2024/02/06 03:36:03;;;;;;;5.90;4.37;;;8.80;99.90;;;;;;5089186;28;20317;-58
2024/02/06 03:38:29;;;;;;;6.87;3.80;;;8.80;99.90;;;;;;5088990;28;20177;-59
2024/02/06 03:40:54;;;;;;;5.43;4.10;;;8.80;99.90;;;;;;5089394;28;20572;-61
2024/02/06 03:43:20;;;;;;;5.40;3.10;;;8.80;99.90;;;;;;5088536;28;20300;-60
2024/02/06 03:45:45;;;;;;;6.47;3.80;;;8.80;99.90;;;;;;5068054;28;20228;-59
2024/02/06 03:48:13;;;;;;;4.10;3.40;;;8.80;99.90;;;;;;5086605;28;20249;-60
2024/02/06 03:50:39;;;;;;;5.93;3.80;;;8.80;99.90;;;;;;5092988;28;20276;-61
2024/02/06 03:53:04;;;;;;;3.97;3.40;;;8.80;99.90;;;;;;5092968;28;20905;-61
2024/02/06 03:55:31;;;;;;;4.40;3.60;;;8.80;99.90;;;;;;5092684;28;20193;-60
2024/02/06 03:57:57;;;;;;;5.63;3.33;;;8.90;99.90;;;;;;5093005;28;20208;-59
2024/02/06 04:00:22;;;;;;;5.17;3.80;;;8.90;99.90;;;;;;5092468;28;20881;-61
2024/02/06 04:02:48;;;;;;;4.73;3.50;;;8.90;99.90;;;;;;5092745;28;20587;-62
2024/02/06 04:05:13;;;;;;;6.90;3.73;;;8.90;99.90;;;;;;5092615;28;20177;-61
2024/02/06 04:07:39;;;;;;;4.30;3.40;;;8.90;99.90;;;;;;5092658;28;20204;-60
2024/02/06 04:10:05;;;;;;;6.53;3.83;;;8.90;99.90;;;;;;5092753;28;20173;-61
2024/02/06 04:12:31;;;;;;;3.87;3.47;;;8.90;99.90;;;;;;5068765;28;20186;-59
2024/02/06 04:14:58;;;;;;;3.80;3.30;;;8.90;99.90;;;;;;5092632;28;20759;-59
2024/02/06 04:17:23;;;;;;;5.37;3.43;;;8.90;99.90;;;;;;5092137;28;20824;-61
2024/02/06 04:19:49;;;;;;;9.07;3.67;;;8.90;99.90;;;;;;5092466;28;20426;-59
2024/02/06 04:22:15;;;;;;;3.87;3.07;;;9.00;99.90;;;;;;5092113;28;20269;-60
2024/02/06 04:24:40;;;;;;;4.83;3.00;;;9.00;99.90;;;;;;5092219;28;20185;-58
2024/02/06 04:27:06;;;;;;;4.40;3.17;;;9.00;99.90;;;;;;5092245;28;20231;-60
2024/02/06 04:29:31;;;;;;;4.37;3.27;;;9.00;99.90;;;;;;5091975;28;20254;-60
2024/02/06 04:31:57;;;;;;;13.90;3.90;;;9.00;99.90;;;;;;5092238;28;20182;-60
2024/02/06 04:34:23;;;;;;;5.93;2.53;;;9.00;99.90;;;;;;5091981;28;20196;-59
2024/02/06 04:36:48;;;;;;;5.23;2.67;;;9.00;99.90;;;;;;5092137;28;20327;-62
2024/02/06 04:39:15;;;;;;;3.60;2.27;;;9.00;99.90;;;;;;5091919;28;20698;-60
2024/02/06 04:41:40;;;;;;;3.70;2.97;;;9.00;99.90;;;;;;5091835;28;20201;-62
2024/02/06 04:44:06;;;;;;;2.90;2.60;;;9.00;99.90;;;;;;5091915;28;20465;-59
2024/02/06 04:46:32;;;;;;;5.87;2.57;;;9.00;99.90;;;;;;5091674;28;20276;-59
2024/02/06 04:48:59;;;;;;;5.10;2.80;;;9.00;99.90;;;;;;5091837;28;20192;-58
2024/02/06 04:51:25;;;;;;;3.73;2.67;;;9.00;99.90;;;;;;5091595;28;20231;-61
2024/02/06 04:53:51;;;;;;;5.80;2.67;;;9.10;99.90;;;;;;5091696;28;20524;-60
2024/02/06 04:56:22;;;;;;;5.40;3.23;;;9.00;99.90;;;;;;5091474;28;20516;-60
2024/02/06 04:58:49;;;;;;;4.67;3.03;;;9.00;99.90;;;;;;5092298;28;20189;-60
2024/02/06 05:01:14;;;;;;;5.27;2.40;;;9.10;99.90;;;;;;5091813;28;20423;-60
2024/02/06 05:03:40;;;;;;;6.50;4.00;;;9.10;99.90;;;;;;5091554;28;20496;-60
2024/02/06 05:06:06;;;;;;;14.50;3.40;;;9.00;99.90;;;;;;5091785;28;20185;-61
2024/02/06 05:08:31;;;;;;;6.33;3.13;;;9.00;99.90;;;;;;5091344;28;20552;-60
2024/02/06 05:10:57;;;;;;;3.90;2.37;;;9.00;99.90;;;;;;5091983;28;20419;-60
2024/02/06 05:13:22;;;;;;;2.97;2.70;;;9.00;99.90;;;;;;5091320;28;20200;-58
2024/02/06 05:15:48;;;;;;;3.47;3.13;;;9.00;99.90;;;;;;5091359;28;20278;-62
2024/02/06 05:18:14;;;;;;;3.00;2.50;;;9.00;99.90;;;;;;5091014;28;20212;-60
2024/02/06 05:20:39;;;;;;;5.70;3.27;;;9.00;99.90;;;;;;5091384;28;20621;-62
2024/02/06 05:23:05;;;;;;;4.57;3.00;;;9.00;99.90;;;;;;5091213;28;20206;-61
2024/02/06 05:25:30;;;;;;;4.10;2.80;;;9.00;99.90;;;;;;5090969;28;20314;-60
2024/02/06 05:27:58;;;;;;;3.63;2.87;;;9.00;99.90;;;;;;5090948;28;20205;-62
2024/02/06 05:30:24;;;;;;;5.93;3.07;;;9.00;99.90;;;;;;5090780;28;20193;-59
2024/02/06 05:32:49;;;;;;;5.80;3.50;;;9.00;99.90;;;;;;5091027;28;20427;-62
2024/02/06 05:35:15;;;;;;;2.80;2.60;;;9.00;99.90;;;;;;5090683;28;20189;-59
2024/02/06 05:37:41;;;;;;;3.60;3.20;;;9.00;99.90;;;;;;5090946;28;20292;-59
2024/02/06 05:40:11;;;;;;;7.17;3.07;;;9.00;99.90;;;;;;5090797;28;20176;-62
2024/02/06 05:42:37;;;;;;;4.60;3.13;;;9.00;99.90;;;;;;5090612;28;20201;-59
2024/02/06 05:45:04;;;;;;;8.33;3.27;;;9.10;99.90;;;;;;5090809;28;20520;-62
2024/02/06 05:47:30;;;;;;;4.20;3.00;;;9.10;99.90;;;;;;5090412;28;20735;-61
2024/02/06 05:49:55;;;;;;;5.93;3.10;;;9.10;99.90;;;;;;5090652;28;20508;-58
2024/02/06 05:52:21;;;;;;;4.77;3.53;;;9.10;99.90;;;;;;5090276;28;20185;-60
2024/02/06 05:54:47;;;;;;;4.67;3.40;;;9.10;99.90;;;;;;5090807;28;20181;-60
2024/02/06 05:57:12;;;;;;;4.00;3.57;;;9.10;99.90;;;;;;5090575;28;20200;-60
2024/02/06 05:59:39;;;;;;;3.60;3.00;;;9.10;99.90;;;;;;5090518;28;20196;-60
2024/02/06 06:02:05;;;;;;;4.60;3.80;;;9.10;99.90;;;;;;5090707;28;20538;-61
2024/02/06 06:04:31;;;;;;;5.60;2.83;;;9.20;99.90;;;;;;5091020;28;20542;-61
2024/02/06 06:06:56;;;;;;;4.20;3.80;;;9.20;99.90;;;;;;5090544;28;20204;-60
2024/02/06 06:09:22;;;;;;;5.73;3.23;;;9.20;99.90;;;;;;5090331;28;20183;-60
2024/02/06 06:11:48;;;;;;;4.70;3.60;;;9.20;99.90;;;;;;5089912;28;20606;-59
2024/02/06 06:14:13;;;;;;;4.80;3.00;;;9.20;99.90;;;;;;5090306;28;20187;-59
2024/02/06 06:16:39;;;;;;;3.93;3.40;;;9.30;99.90;;;;;;5089946;28;20443;-57
2024/02/06 06:19:04;;;;;;;8.33;3.67;;;9.20;99.90;;;;;;5089923;28;20197;-60
2024/02/06 06:21:30;;;;;;;2.93;2.63;;;9.30;99.90;;;;;;5089593;28;20804;-59
2024/02/06 06:23:56;;;;;;;9.90;2.60;;;9.30;99.90;;;;;;5088918;28;20212;-59
2024/02/06 06:26:21;;;;;;;8.00;3.63;;;9.30;99.90;;;;;;5087056;28;20263;-59
2024/02/06 06:28:47;;;;;;;6.17;3.03;;;9.30;99.90;;;;;;5089966;28;20199;-61
2024/02/06 06:31:12;;;;;;;3.67;3.20;;;9.30;99.90;;;;;;5089894;28;20184;-58
2024/02/06 06:33:38;;;;;;;9.33;3.27;;;9.30;99.90;;;;;;5089554;28;20774;-59
2024/02/06 06:36:03;;;;;;;4.13;3.30;;;9.40;99.90;;;;;;5089406;28;20260;-61
2024/02/06 06:38:29;;;;;;;3.77;2.90;;;9.40;99.90;;;;;;5089515;28;20189;-59
2024/02/06 06:40:55;;;;;;;3.43;3.13;;;9.40;99.90;;;;;;5090083;28;20706;-61
2024/02/06 06:43:20;;;;;;;5.13;3.10;;;9.40;99.90;;;;;;5089148;28;20201;-59
2024/02/06 06:45:46;;;;;;;4.53;3.70;;;9.40;99.90;;;;;;5089774;28;20184;-60
2024/02/06 06:48:12;;;;;;;4.43;2.90;;;9.40;99.90;;;;;;5089566;28;20254;-61
2024/02/06 06:50:37;;;;;;;5.40;2.83;;;9.40;99.90;;;;;;5089295;28;20715;-62
2024/02/06 06:53:03;;;;;;;6.10;3.33;;;9.40;99.90;;;;;;5089573;28;20193;-61
2024/02/06 06:55:28;;;;;;;2.90;2.70;;;9.40;99.90;;;;;;5089206;28;20591;-60
2024/02/06 06:57:54;;;;;;;6.20;2.73;;;9.40;99.90;;;;;;5089658;28;20554;-60
2024/02/06 07:00:20;;;;;;;9.97;3.50;;;9.40;99.90;;;;;;5089206;28;20185;-61
2024/02/06 07:02:46;;;;;;;6.80;3.33;;;9.40;99.90;;;;;;5089762;28;20605;-61
2024/02/06 07:05:11;;;;;;;4.17;3.37;;;9.40;99.90;;;;;;5089552;28;20435;-61
2024/02/06 07:07:37;;;;;;;4.67;2.90;;;9.40;99.90;;;;;;5088677;28;20236;-58
2024/02/06 07:10:04;;;;;;;4.40;3.33;;;9.40;99.90;;;;;;5089590;28;20260;-59
2024/02/06 07:12:29;;;;;;;5.77;3.30;;;9.50;99.90;;;;;;5089335;28;20476;-60
2024/02/06 07:14:55;;;;;;;4.13;2.80;;;9.50;99.90;;;;;;5089748;28;20926;-59
2024/02/06 07:17:20;;;;;;;6.53;3.27;;;9.50;99.90;;;;;;5089672;28;20201;-62
2024/02/06 07:19:46;;;;;;;2.43;2.17;;;9.50;99.90;;;;;;5089679;28;20260;-59
2024/02/06 07:22:11;;;;;;;3.00;2.63;;;9.60;99.90;;;;;;5089281;28;20209;-62
2024/02/06 07:24:37;;;;;;;3.27;2.20;;;9.60;99.90;;;;;;5092018;28;20201;-61
2024/02/06 07:27:03;;;;;;;3.40;3.07;;;9.60;99.90;;;;;;5090517;28;20694;-58
2024/02/06 07:29:29;;;;;;;6.23;2.50;;;9.60;99.90;;;;;;5093173;28;20212;-61
2024/02/06 07:31:55;;;;;;;3.10;2.80;;;9.60;99.90;;;;;;5093718;28;20201;-58
2024/02/06 07:34:20;;;;;;;3.93;3.00;;;9.60;99.90;;;;;;5093127;28;20433;-63
2024/02/06 07:36:46;;;;;;;3.20;2.90;;;9.70;99.90;;;;;;5074914;28;20244;-61
2024/02/06 07:39:12;;;;;;;2.20;2.00;;;9.70;99.90;;;;;;5092989;28;20697;-60
2024/02/06 07:41:38;;;;;;;4.33;3.10;;;9.70;99.90;;;;;;5092688;28;20536;-61
2024/02/06 07:44:04;;;;;;;2.03;1.90;;;9.70;99.90;;;;;;5093017;28;20261;-59
2024/02/06 07:46:30;;;;;;;3.60;2.90;;;9.80;99.90;;;;;;5092708;28;20443;-59
2024/02/06 07:48:56;;;;;;;7.03;3.00;;;9.80;99.90;;;;;;5092916;28;20427;-59
2024/02/06 07:51:23;;;;;;;4.83;2.40;;;9.80;99.90;;;;;;5092620;28;20424;-61
2024/02/06 07:53:52;;;;;;;3.53;2.60;;;9.80;99.90;;;;;;5092506;28;20420;-61
2024/02/06 07:56:19;;;;;;;4.57;2.23;;;9.80;99.90;;;;;;5090973;28;20441;-59
2024/02/06 07:58:46;;;;;;;2.70;2.47;;;9.80;99.90;;;;;;5088968;28;20427;-61
2024/02/06 08:01:12;;;;;;;3.53;2.30;;;9.80;99.90;;;;;;5092660;28;20438;-59
2024/02/06 08:03:38;;;;;;;2.53;2.17;;;9.80;99.90;;;;;;5092201;28;20534;-59
2024/02/06 08:06:04;;;;;;;3.50;2.70;;;9.90;99.90;;;;;;5092464;28;20437;-59
2024/02/06 08:08:30;;;;;;;2.13;1.93;;;9.90;99.90;;;;;;5089822;28;20181;-59
2024/02/06 08:10:55;;;;;;;2.43;2.00;;;9.90;99.90;;;;;;5092618;28;20427;-58
2024/02/06 08:13:21;;;;;;;3.43;2.13;;;9.90;99.90;;;;;;5092195;28;20186;-60
2024/02/06 08:15:47;;;;;;;3.77;2.40;;;9.90;99.90;;;;;;5092146;28;20255;-60
2024/02/06 08:18:12;;;;;;;2.83;2.50;;;9.90;99.90;;;;;;5092249;28;20640;-60
2024/02/06 08:20:38;;;;;;;8.90;2.93;;;9.90;99.90;;;;;;5092242;28;20242;-59
2024/02/06 08:23:04;;;;;;;5.23;3.10;;;9.90;99.90;;;;;;5092356;28;20284;-61
2024/02/06 08:25:31;;;;;;;6.40;3.50;;;9.90;99.90;;;;;;5089458;28;20488;-61
2024/02/06 08:27:56;;;;;;;3.13;2.83;;;9.90;99.90;;;;;;5092129;28;20589;-58
2024/02/06 08:30:22;;;;;;;3.67;3.27;;;9.90;99.90;;;;;;5092429;28;20546;-58
2024/02/06 08:32:47;;;;;;;3.60;2.53;;;10.00;99.90;;;;;;5091646;28;20181;-61
2024/02/06 08:35:14;;;;;;;2.23;2.00;;;10.00;99.90;;;;;;5091673;28;20192;-61
2024/02/06 08:37:39;;;;;;;2.50;2.30;;;10.10;99.90;;;;;;5091848;28;20209;-62
2024/02/06 08:40:07;;;;;;;4.43;1.80;;;10.10;99.90;;;;;;5092059;28;20415;-64
2024/02/06 08:42:36;;;;;;;6.17;2.17;;;10.20;99.90;;;;;;5092067;28;20642;-63
2024/02/06 08:45:02;;;;;;;3.23;2.93;;;10.10;99.90;;;;;;5092234;28;20423;-63
2024/02/06 08:47:28;;;;;;;4.67;1.80;;;10.10;99.90;;;;;;5091394;28;20526;-64
2024/02/06 08:49:54;;;;;;;2.97;2.60;;;10.20;99.90;;;;;;5092257;28;20760;-63
2024/02/06 08:52:19;;;;;;;3.30;2.40;;;10.30;99.90;;;;;;5091782;28;20564;-64
2024/02/06 08:54:45;;;;;;;4.10;2.20;;;10.30;99.90;;;;;;5091711;28;20210;-62
2024/02/06 08:57:11;;;;;;;3.00;2.57;;;10.30;99.90;;;;;;5091778;28;20296;-62
2024/02/06 08:59:36;;;;;;;3.57;1.77;;;10.30;99.90;;;;;;5091441;28;20238;-58
2024/02/06 09:02:02;;;;;;;2.90;2.30;;;10.30;99.90;;;;;;5091678;28;20213;-60
2024/02/06 09:04:29;;;;;;;85.30;40.33;;;10.30;99.90;;;;;;5091651;28;20185;-60
2024/02/06 09:06:54;;;;;;;87.20;40.50;;;10.50;99.90;;;;;;5091475;28;20951;-61
2024/02/06 09:09:20;;;;;;;7.17;3.50;;;10.80;99.90;;;;;;5084987;28;20421;-59
2024/02/06 09:11:46;;;;;;;4.47;3.30;;;10.70;99.90;;;;;;5091029;28;20542;-61
2024/02/06 09:14:12;;;;;;;6.67;2.40;;;10.50;99.90;;;;;;5091590;28;20190;-61
2024/02/06 09:16:37;;;;;;;4.37;2.97;;;10.50;99.90;;;;;;5091167;28;20773;-59
2024/02/06 09:19:03;;;;;;;4.00;2.40;;;10.60;99.90;;;;;;5091480;28;20174;-61
2024/02/06 09:21:30;;;;;;;3.30;2.47;;;10.50;99.90;;;;;;5091228;28;20258;-60
2024/02/06 09:23:56;;;;;;;8.20;2.40;;;10.50;99.90;;;;;;5091590;28;20181;-62
2024/02/06 09:26:21;;;;;;;3.80;1.83;;;10.50;99.90;;;;;;5084587;28;20506;-64
2024/02/06 09:28:47;;;;;;;2.60;2.20;;;10.50;99.90;;;;;;5091241;28;20662;-62
2024/02/06 09:31:13;;;;;;;1.80;1.70;;;10.50;99.90;;;;;;5091074;28;20189;-62
2024/02/06 09:33:38;;;;;;;2.77;1.77;;;10.50;99.90;;;;;;5070861;28;20178;-59
2024/02/06 09:36:06;;;;;;;4.40;2.23;;;10.50;99.90;;;;;;5091078;28;20268;-61
2024/02/06 09:38:32;;;;;;;1.70;1.60;;;10.60;99.90;;;;;;5090786;28;20178;-61
2024/02/06 09:40:59;;;;;;;5.57;2.40;;;10.60;99.90;;;;;;5091226;28;20570;-58
2024/02/06 09:43:25;;;;;;;3.10;2.00;;;10.60;99.90;;;;;;5090559;28;20566;-62
2024/02/06 09:45:51;;;;;;;5.40;1.70;;;10.60;99.90;;;;;;5089747;28;20424;-58
2024/02/06 09:48:17;;;;;;;3.03;1.83;;;10.60;99.90;;;;;;5090812;28;20929;-60
2024/02/06 09:50:43;;;;;;;3.50;2.20;;;10.70;99.90;;;;;;5090596;28;20426;-61
2024/02/06 09:53:10;;;;;;;2.40;1.97;;;10.70;99.90;;;;;;5090993;28;20426;-59
2024/02/06 09:55:43;;;;;;;7.73;2.10;;;10.80;99.90;;;;;;5091019;28;20201;-61
2024/02/06 09:58:10;;;;;;;6.43;1.70;;;10.90;99.90;;;;;;5090477;28;20455;-60
2024/02/06 10:00:40;;;;;;;5.97;2.10;;;10.90;99.90;;;;;;5090354;28;20459;-60
2024/02/06 10:03:13;;;;;;;2.83;1.97;;;10.90;99.90;;;;;;5090522;28;20823;-60
2024/02/06 10:05:43;;;;;;;2.70;2.00;;;10.90;99.90;;;;;;5090250;28;20580;-61
2024/02/06 10:08:12;;;;;;;2.93;1.90;;;11.00;99.90;;;;;;5090346;28;20454;-60
2024/02/06 10:10:40;;;;;;;2.33;1.93;;;11.00;99.90;;;;;;5090066;28;20431;-61
2024/02/06 10:13:07;;;;;;;2.80;2.13;;;11.00;99.90;;;;;;5090448;28;20455;-60
2024/02/06 10:15:33;;;;;;;3.87;2.20;;;11.20;99.90;;;;;;5089911;28;20428;-61
2024/02/06 10:18:00;;;;;;;2.80;2.00;;;11.20;99.90;;;;;;5090275;28;20448;-61
2024/02/06 10:20:25;;;;;;;6.03;2.27;;;11.20;99.90;;;;;;5071994;28;20423;-60
2024/02/06 10:22:51;;;;;;;2.60;2.23;;;11.30;99.90;;;;;;5089662;28;20984;-61
2024/02/06 10:25:18;;;;;;;1.90;1.63;;;11.30;99.90;;;;;;5089949;28;20502;-61
2024/02/06 10:27:43;;;;;;;1.97;1.87;;;11.40;99.90;;;;;;5083818;28;20690;-61
2024/02/06 10:30:12;;;;;;;2.97;2.17;;;11.40;99.90;;;;;;5089892;28;20463;-61
2024/02/06 10:32:38;;;;;;;1.53;1.37;;;11.50;99.90;;;;;;5089481;28;20221;-61
2024/02/06 10:35:08;;;;;;;4.13;1.87;;;11.40;99.90;;;;;;5082119;28;20427;-60
2024/02/06 10:37:36;;;;;;;3.23;1.30;;;11.40;99.90;;;;;;5083874;28;20614;-60
2024/02/06 10:40:09;;;;;;;2.40;1.63;;;11.40;99.90;;;;;;5085312;28;20420;-60
2024/02/06 10:42:39;;;;;;;1.63;1.30;;;11.40;99.90;;;;;;5090232;28;20459;-61
2024/02/06 10:45:05;;;;;;;1.23;1.13;;;11.40;99.90;;;;;;5090140;28;20416;-61
2024/02/06 10:47:31;;;;;;;3.50;1.40;;;11.40;99.90;;;;;;5089783;28;20431;-59
2024/02/06 10:50:07;;;;;;;3.07;1.90;;;11.40;99.90;;;;;;5085109;28;20431;-60
2024/02/06 10:52:33;;;;;;;2.87;1.50;;;11.40;99.90;;;;;;5089296;28;20419;-61
2024/02/06 10:54:59;;;;;;;2.60;1.83;;;11.40;99.90;;;;;;5086904;28;20815;-60
2024/02/06 10:57:26;;;;;;;3.73;1.40;;;11.40;99.90;;;;;;5089521;28;20474;-61
2024/02/06 11:00:07;;;;;;;2.80;1.60;;;11.30;99.90;;;;;;5087851;28;20415;-59
2024/02/06 11:02:34;;;;;;;1.93;1.47;;;11.30;99.90;;;;;;5085827;28;20495;-62
2024/02/06 11:05:34;;;;;;;3.30;1.77;;;11.40;99.90;;;;;;5089482;28;20920;-61
2024/02/06 11:08:13;;;;;;;2.60;1.63;;;11.30;99.90;;;;;;5091174;28;20432;-61
2024/02/06 11:10:49;;;;;;;3.53;1.47;;;11.50;99.90;;;;;;5089059;28;20507;-60
2024/02/06 11:13:33;;;;;;;2.73;1.70;;;11.30;99.90;;;;;;5071201;28;20441;-61
2024/02/06 11:16:02;;;;;;;3.60;2.17;;;11.30;99.90;;;;;;5089426;28;20974;-61
2024/02/06 11:18:35;;;;;;;3.00;2.10;;;11.30;99.90;;;;;;5089708;28;20434;-61
2024/02/06 11:21:03;;;;;;;4.13;2.10;;;11.30;99.90;;;;;;5088620;28;20423;-61
2024/02/06 11:23:30;;;;;;;2.40;1.83;;;11.30;99.90;;;;;;5089123;28;20455;-60
2024/02/06 11:25:56;;;;;;;1.67;1.20;;;11.20;99.90;;;;;;5089312;28;20438;-61
2024/02/06 11:28:23;;;;;;;4.70;1.53;;;11.10;99.90;;;;;;5089213;28;20443;-60
2024/02/06 11:30:51;;;;;;;1.60;1.20;;;11.20;99.90;;;;;;5089243;28;20427;-60
2024/02/06 11:33:19;;;;;;;2.40;1.60;;;11.20;99.90;;;;;;5089540;28;20435;-61
2024/02/06 11:35:44;;;;;;;3.23;2.93;;;11.30;99.90;;;;;;5089237;28;20434;-60
2024/02/06 11:38:12;;;;;;;2.83;1.53;;;11.30;99.90;;;;;;5089141;28;20451;-60
2024/02/06 11:40:39;;;;;;;1.80;1.50;;;11.20;99.90;;;;;;5089162;28;20801;-61
2024/02/06 11:43:06;;;;;;;1.43;1.33;;;11.10;99.90;;;;;;5088822;28;20573;-61
2024/02/06 11:45:34;;;;;;;2.60;1.57;;;11.30;99.90;;;;;;5085946;28;20432;-59
2024/02/06 11:48:01;;;;;;;1.77;1.50;;;11.20;99.90;;;;;;5086298;28;20453;-60
2024/02/06 11:50:46;;;;;;;1.77;1.67;;;11.30;99.90;;;;;;5089160;28;20839;-60
2024/02/06 11:53:17;;;;;;;5.33;1.30;;;11.30;99.90;;;;;;5086979;28;20423;-60
2024/02/06 11:55:46;;;;;;;1.63;1.30;;;11.30;99.90;;;;;;5089062;28;20415;-61
2024/02/06 11:58:13;;;;;;;2.20;1.30;;;11.40;99.90;;;;;;5089110;28;20933;-60
2024/02/06 12:00:39;;;;;;;1.90;1.33;;;11.40;99.90;;;;;;5089015;28;20786;-60
2024/02/06 12:03:05;;;;;;;5.50;2.00;;;11.50;99.90;;;;;;5089000;28;20463;-61
2024/02/06 12:05:43;;;;;;;1.97;1.40;;;11.60;99.90;;;;;;5088945;28;20447;-60
2024/02/06 12:08:11;;;;;;;1.77;1.60;;;11.60;99.90;;;;;;5084056;28;20435;-59
2024/02/06 12:10:38;;;;;;;4.37;1.60;;;11.60;99.90;;;;;;5091553;28;20595;-61
2024/02/06 12:13:07;;;;;;;1.40;1.30;;;11.60;99.90;;;;;;5092627;28;20427;-60
2024/02/06 12:15:34;;;;;;;2.00;1.27;;;11.70;99.90;;;;;;5066531;28;20444;-60
2024/02/06 12:18:04;;;;;;;8.30;1.90;;;11.70;99.90;;;;;;5092175;28;20496;-61
2024/02/06 12:20:30;;;;;;;3.23;2.70;;;11.60;99.90;;;;;;5092418;28;20527;-61
2024/02/06 12:23:05;;;;;;;2.30;1.60;;;11.70;99.90;;;;;;5092029;28;20533;-61
2024/02/06 12:25:32;;;;;;;2.20;1.10;;;11.70;99.90;;;;;;5086476;28;20546;-61
2024/02/06 12:27:58;;;;;;;1.20;1.10;;;11.70;99.90;;;;;;5084367;28;20502;-60
2024/02/06 12:30:27;;;;;;;2.20;1.53;;;11.70;99.90;;;;;;5088787;28;20867;-60
2024/02/06 12:32:57;;;;;;;1.70;1.43;;;11.60;99.90;;;;;;5090171;28;20609;-61
2024/02/06 12:35:23;;;;;;;1.83;1.53;;;11.70;99.90;;;;;;5089330;28;20920;-59
2024/02/06 12:37:49;;;;;;;1.47;1.20;;;11.70;99.90;;;;;;5090003;28;20443;-60
2024/02/06 12:40:17;;;;;;;2.27;1.40;;;11.70;99.90;;;;;;5092328;28;20193;-62
2024/02/06 12:42:46;;;;;;;5.10;1.63;;;11.70;99.90;;;;;;5091288;28;20244;-61
2024/02/06 12:45:14;;;;;;;13.83;1.50;;;11.70;99.90;;;;;;5091264;28;20971;-61
2024/02/06 12:47:41;;;;;;;2.17;1.73;;;11.60;99.90;;;;;;5091093;28;21029;-62
2024/02/06 12:50:08;;;;;;;2.03;1.37;;;11.70;99.90;;;;;;5091610;28;20505;-60